sensor_id;sensor_type;location;lat;lon;timestamp;P1;durP1;ratioP1;P2;durP2;ratioP2
75787;SDS011;64406;50.024;14.492;2024-03-02T00:00:22;41.55;;;24.20;;
75787;SDS011;64406;50.024;14.492;2024-03-02T00:03:11;42.83;;;23.33;;
75787;SDS011;64406;50.024;14.492;2024-03-02T00:05:39;47.65;;;25.70;;
75787;SDS011;64406;50.024;14.492;2024-03-02T00:08:05;44.75;;;24.65;;
75787;SDS011;64406;50.024;14.492;2024-03-02T00:10:39;46.67;;;23.83;;
75787;SDS011;64406;50.024;14.492;2024-03-02T00:13:05;43.95;;;24.00;;
75787;SDS011;64406;50.024;14.492;2024-03-02T00:15:48;47.55;;;25.20;;
75787;SDS011;64406;50.024;14.492;2024-03-02T00:18:18;49.92;;;24.40;;
75787;SDS011;64406;50.024;14.492;2024-03-02T00:20:52;46.55;;;25.08;;
75787;SDS011;64406;50.024;14.492;2024-03-02T00:23:20;47.08;;;24.10;;
75787;SDS011;64406;50.024;14.492;2024-03-02T00:25:47;48.75;;;25.25;;
75787;SDS011;64406;50.024;14.492;2024-03-02T00:28:16;46.20;;;24.40;;
75787;SDS011;64406;50.024;14.492;2024-03-02T00:33:19;44.33;;;25.13;;
75787;SDS011;64406;50.024;14.492;2024-03-02T00:35:46;43.30;;;24.75;;
75787;SDS011;64406;50.024;14.492;2024-03-02T00:38:12;47.42;;;26.45;;
75787;SDS011;64406;50.024;14.492;2024-03-02T00:40:41;49.35;;;25.27;;
75787;SDS011;64406;50.024;14.492;2024-03-02T00:43:11;45.88;;;25.90;;
75787;SDS011;64406;50.024;14.492;2024-03-02T00:45:54;47.22;;;24.70;;
75787;SDS011;64406;50.024;14.492;2024-03-02T00:48:20;49.83;;;26.40;;
75787;SDS011;64406;50.024;14.492;2024-03-02T00:50:46;50.13;;;26.73;;
75787;SDS011;64406;50.024;14.492;2024-03-02T00:53:17;48.67;;;26.60;;
75787;SDS011;64406;50.024;14.492;2024-03-02T00:55:49;48.60;;;25.50;;
75787;SDS011;64406;50.024;14.492;2024-03-02T00:58:15;50.47;;;28.63;;
75787;SDS011;64406;50.024;14.492;2024-03-02T01:00:41;49.22;;;26.38;;
75787;SDS011;64406;50.024;14.492;2024-03-02T01:03:06;47.40;;;24.85;;
75787;SDS011;64406;50.024;14.492;2024-03-02T01:05:33;49.10;;;26.17;;
75787;SDS011;64406;50.024;14.492;2024-03-02T01:07:59;50.35;;;25.60;;
75787;SDS011;64406;50.024;14.492;2024-03-02T01:10:24;53.17;;;26.63;;
75787;SDS011;64406;50.024;14.492;2024-03-02T01:12:51;48.00;;;25.13;;
75787;SDS011;64406;50.024;14.492;2024-03-02T01:15:17;48.53;;;25.48;;
75787;SDS011;64406;50.024;14.492;2024-03-02T01:17:42;50.90;;;26.70;;
75787;SDS011;64406;50.024;14.492;2024-03-02T01:20:08;47.28;;;26.83;;
75787;SDS011;64406;50.024;14.492;2024-03-02T01:22:34;50.70;;;27.25;;
75787;SDS011;64406;50.024;14.492;2024-03-02T01:25:01;51.13;;;24.88;;
75787;SDS011;64406;50.024;14.492;2024-03-02T01:27:27;47.30;;;24.75;;
75787;SDS011;64406;50.024;14.492;2024-03-02T01:29:53;50.50;;;24.52;;
75787;SDS011;64406;50.024;14.492;2024-03-02T01:32:19;50.00;;;24.10;;
75787;SDS011;64406;50.024;14.492;2024-03-02T01:34:45;48.80;;;25.10;;
75787;SDS011;64406;50.024;14.492;2024-03-02T01:37:11;50.10;;;24.55;;
75787;SDS011;64406;50.024;14.492;2024-03-02T01:39:36;49.53;;;25.77;;
75787;SDS011;64406;50.024;14.492;2024-03-02T01:42:02;51.63;;;25.58;;
75787;SDS011;64406;50.024;14.492;2024-03-02T01:44:28;45.63;;;23.80;;
75787;SDS011;64406;50.024;14.492;2024-03-02T01:46:53;49.35;;;25.48;;
75787;SDS011;64406;50.024;14.492;2024-03-02T01:49:19;51.53;;;25.20;;
75787;SDS011;64406;50.024;14.492;2024-03-02T01:51:45;45.67;;;24.95;;
75787;SDS011;64406;50.024;14.492;2024-03-02T01:54:11;49.03;;;25.08;;
75787;SDS011;64406;50.024;14.492;2024-03-02T01:56:36;44.65;;;24.00;;
75787;SDS011;64406;50.024;14.492;2024-03-02T01:59:02;48.92;;;24.30;;
75787;SDS011;64406;50.024;14.492;2024-03-02T02:01:28;41.70;;;22.08;;
75787;SDS011;64406;50.024;14.492;2024-03-02T02:03:54;48.50;;;24.30;;
75787;SDS011;64406;50.024;14.492;2024-03-02T02:06:20;46.25;;;24.65;;
75787;SDS011;64406;50.024;14.492;2024-03-02T02:08:46;57.50;;;26.75;;
75787;SDS011;64406;50.024;14.492;2024-03-02T02:11:14;46.83;;;23.73;;
75787;SDS011;64406;50.024;14.492;2024-03-02T02:13:41;44.92;;;22.50;;
75787;SDS011;64406;50.024;14.492;2024-03-02T02:16:06;51.42;;;25.38;;
75787;SDS011;64406;50.024;14.492;2024-03-02T02:18:33;47.30;;;23.95;;
75787;SDS011;64406;50.024;14.492;2024-03-02T02:20:59;49.22;;;24.75;;
75787;SDS011;64406;50.024;14.492;2024-03-02T02:23:24;41.05;;;21.65;;
75787;SDS011;64406;50.024;14.492;2024-03-02T02:25:50;52.35;;;23.63;;
75787;SDS011;64406;50.024;14.492;2024-03-02T02:28:16;48.90;;;23.05;;
75787;SDS011;64406;50.024;14.492;2024-03-02T02:30:42;49.20;;;22.92;;
75787;SDS011;64406;50.024;14.492;2024-03-02T02:33:08;46.00;;;22.83;;
75787;SDS011;64406;50.024;14.492;2024-03-02T02:35:34;46.25;;;23.13;;
75787;SDS011;64406;50.024;14.492;2024-03-02T02:38:00;47.65;;;23.38;;
75787;SDS011;64406;50.024;14.492;2024-03-02T02:40:27;44.53;;;22.60;;
75787;SDS011;64406;50.024;14.492;2024-03-02T02:42:56;49.05;;;23.40;;
75787;SDS011;64406;50.024;14.492;2024-03-02T02:45:22;46.03;;;23.40;;
75787;SDS011;64406;50.024;14.492;2024-03-02T02:47:48;44.72;;;23.52;;
75787;SDS011;64406;50.024;14.492;2024-03-02T02:50:14;48.97;;;22.98;;
75787;SDS011;64406;50.024;14.492;2024-03-02T02:52:40;41.17;;;19.77;;
75787;SDS011;64406;50.024;14.492;2024-03-02T02:55:07;42.50;;;21.70;;
75787;SDS011;64406;50.024;14.492;2024-03-02T02:57:35;36.40;;;18.75;;
75787;SDS011;64406;50.024;14.492;2024-03-02T03:00:09;42.40;;;20.92;;
75787;SDS011;64406;50.024;14.492;2024-03-02T03:02:40;41.20;;;20.13;;
75787;SDS011;64406;50.024;14.492;2024-03-02T03:05:07;41.97;;;20.38;;
75787;SDS011;64406;50.024;14.492;2024-03-02T03:07:34;40.50;;;19.05;;
75787;SDS011;64406;50.024;14.492;2024-03-02T03:10:00;37.45;;;17.83;;
75787;SDS011;64406;50.024;14.492;2024-03-02T03:12:26;36.97;;;18.98;;
75787;SDS011;64406;50.024;14.492;2024-03-02T03:14:52;34.13;;;18.30;;
75787;SDS011;64406;50.024;14.492;2024-03-02T03:17:17;40.22;;;19.05;;
75787;SDS011;64406;50.024;14.492;2024-03-02T03:19:43;39.78;;;17.33;;
75787;SDS011;64406;50.024;14.492;2024-03-02T03:22:09;31.10;;;14.98;;
75787;SDS011;64406;50.024;14.492;2024-03-02T03:24:34;28.63;;;16.30;;
75787;SDS011;64406;50.024;14.492;2024-03-02T03:27:00;33.20;;;15.93;;
75787;SDS011;64406;50.024;14.492;2024-03-02T03:29:26;34.05;;;16.33;;
75787;SDS011;64406;50.024;14.492;2024-03-02T03:31:51;29.73;;;14.88;;
75787;SDS011;64406;50.024;14.492;2024-03-02T03:34:17;32.33;;;13.93;;
75787;SDS011;64406;50.024;14.492;2024-03-02T03:36:43;28.10;;;14.52;;
75787;SDS011;64406;50.024;14.492;2024-03-02T03:39:08;25.55;;;12.90;;
75787;SDS011;64406;50.024;14.492;2024-03-02T03:41:34;26.77;;;13.32;;
75787;SDS011;64406;50.024;14.492;2024-03-02T03:43:59;24.92;;;11.98;;
75787;SDS011;64406;50.024;14.492;2024-03-02T03:46:25;33.30;;;14.32;;
75787;SDS011;64406;50.024;14.492;2024-03-02T03:48:51;30.20;;;13.82;;
75787;SDS011;64406;50.024;14.492;2024-03-02T03:51:16;23.33;;;12.85;;
75787;SDS011;64406;50.024;14.492;2024-03-02T03:53:42;26.25;;;13.38;;
75787;SDS011;64406;50.024;14.492;2024-03-02T03:56:08;27.08;;;14.13;;
75787;SDS011;64406;50.024;14.492;2024-03-02T03:58:33;25.02;;;13.07;;
75787;SDS011;64406;50.024;14.492;2024-03-02T04:00:59;23.92;;;13.15;;
75787;SDS011;64406;50.024;14.492;2024-03-02T04:03:24;23.88;;;12.52;;
75787;SDS011;64406;50.024;14.492;2024-03-02T04:05:50;27.67;;;14.55;;
75787;SDS011;64406;50.024;14.492;2024-03-02T04:08:16;26.50;;;13.30;;
75787;SDS011;64406;50.024;14.492;2024-03-02T04:10:42;28.73;;;13.65;;
75787;SDS011;64406;50.024;14.492;2024-03-02T04:13:07;24.52;;;12.88;;
75787;SDS011;64406;50.024;14.492;2024-03-02T04:15:33;32.85;;;15.13;;
75787;SDS011;64406;50.024;14.492;2024-03-02T04:17:58;25.25;;;13.40;;
75787;SDS011;64406;50.024;14.492;2024-03-02T04:20:27;27.38;;;13.95;;
75787;SDS011;64406;50.024;14.492;2024-03-02T04:22:52;25.50;;;13.95;;
75787;SDS011;64406;50.024;14.492;2024-03-02T04:25:18;26.85;;;13.27;;
75787;SDS011;64406;50.024;14.492;2024-03-02T04:27:45;23.92;;;13.35;;
75787;SDS011;64406;50.024;14.492;2024-03-02T04:30:11;25.38;;;12.15;;
75787;SDS011;64406;50.024;14.492;2024-03-02T04:32:36;24.75;;;12.40;;
75787;SDS011;64406;50.024;14.492;2024-03-02T04:35:02;24.63;;;12.68;;
75787;SDS011;64406;50.024;14.492;2024-03-02T04:37:28;25.63;;;13.80;;
75787;SDS011;64406;50.024;14.492;2024-03-02T04:39:53;27.80;;;12.65;;
75787;SDS011;64406;50.024;14.492;2024-03-02T04:42:19;32.75;;;14.27;;
75787;SDS011;64406;50.024;14.492;2024-03-02T04:44:44;32.72;;;14.73;;
75787;SDS011;64406;50.024;14.492;2024-03-02T04:47:10;26.88;;;13.38;;
75787;SDS011;64406;50.024;14.492;2024-03-02T04:49:36;26.08;;;14.00;;
75787;SDS011;64406;50.024;14.492;2024-03-02T04:52:01;26.90;;;13.73;;
75787;SDS011;64406;50.024;14.492;2024-03-02T04:54:27;25.45;;;12.68;;
75787;SDS011;64406;50.024;14.492;2024-03-02T04:56:53;27.98;;;13.65;;
75787;SDS011;64406;50.024;14.492;2024-03-02T04:59:19;25.75;;;13.35;;
75787;SDS011;64406;50.024;14.492;2024-03-02T05:01:45;22.48;;;12.98;;
75787;SDS011;64406;50.024;14.492;2024-03-02T05:04:11;26.33;;;13.18;;
75787;SDS011;64406;50.024;14.492;2024-03-02T05:06:37;19.05;;;11.35;;
75787;SDS011;64406;50.024;14.492;2024-03-02T05:09:04;23.20;;;12.38;;
75787;SDS011;64406;50.024;14.492;2024-03-02T05:11:30;27.88;;;12.18;;
75787;SDS011;64406;50.024;14.492;2024-03-02T05:14:04;26.60;;;12.32;;
75787;SDS011;64406;50.024;14.492;2024-03-02T05:16:34;25.92;;;12.30;;
75787;SDS011;64406;50.024;14.492;2024-03-02T05:19:00;28.27;;;14.68;;
75787;SDS011;64406;50.024;14.492;2024-03-02T05:21:26;27.40;;;13.88;;
75787;SDS011;64406;50.024;14.492;2024-03-02T05:23:51;26.27;;;12.95;;
75787;SDS011;64406;50.024;14.492;2024-03-02T05:26:17;24.38;;;13.57;;
75787;SDS011;64406;50.024;14.492;2024-03-02T05:28:43;26.92;;;13.65;;
75787;SDS011;64406;50.024;14.492;2024-03-02T05:31:10;29.13;;;14.43;;
75787;SDS011;64406;50.024;14.492;2024-03-02T05:33:39;30.23;;;13.98;;
75787;SDS011;64406;50.024;14.492;2024-03-02T05:36:05;29.27;;;14.02;;
75787;SDS011;64406;50.024;14.492;2024-03-02T05:38:32;24.52;;;12.27;;
75787;SDS011;64406;50.024;14.492;2024-03-02T05:40:57;29.77;;;14.55;;
75787;SDS011;64406;50.024;14.492;2024-03-02T05:43:23;29.40;;;13.70;;
75787;SDS011;64406;50.024;14.492;2024-03-02T05:45:49;31.10;;;14.35;;
75787;SDS011;64406;50.024;14.492;2024-03-02T05:48:14;26.38;;;13.27;;
75787;SDS011;64406;50.024;14.492;2024-03-02T05:50:40;27.67;;;13.80;;
75787;SDS011;64406;50.024;14.492;2024-03-02T05:53:06;32.67;;;14.15;;
75787;SDS011;64406;50.024;14.492;2024-03-02T05:55:31;30.13;;;13.55;;
75787;SDS011;64406;50.024;14.492;2024-03-02T05:57:57;27.75;;;13.93;;
75787;SDS011;64406;50.024;14.492;2024-03-02T06:00:28;29.52;;;14.55;;
75787;SDS011;64406;50.024;14.492;2024-03-02T06:02:56;34.72;;;13.98;;
75787;SDS011;64406;50.024;14.492;2024-03-02T06:05:21;30.02;;;14.60;;
75787;SDS011;64406;50.024;14.492;2024-03-02T06:07:47;27.50;;;13.38;;
75787;SDS011;64406;50.024;14.492;2024-03-02T06:10:12;28.20;;;13.70;;
75787;SDS011;64406;50.024;14.492;2024-03-02T06:12:38;27.48;;;13.02;;
75787;SDS011;64406;50.024;14.492;2024-03-02T06:15:04;24.02;;;12.68;;
75787;SDS011;64406;50.024;14.492;2024-03-02T06:17:30;25.08;;;12.93;;
75787;SDS011;64406;50.024;14.492;2024-03-02T06:19:55;25.52;;;13.88;;
75787;SDS011;64406;50.024;14.492;2024-03-02T06:22:21;24.92;;;13.43;;
75787;SDS011;64406;50.024;14.492;2024-03-02T06:24:50;33.80;;;14.00;;
75787;SDS011;64406;50.024;14.492;2024-03-02T06:27:16;27.70;;;13.52;;
75787;SDS011;64406;50.024;14.492;2024-03-02T06:29:41;24.67;;;13.52;;
75787;SDS011;64406;50.024;14.492;2024-03-02T06:32:07;31.95;;;15.25;;
75787;SDS011;64406;50.024;14.492;2024-03-02T06:34:33;33.65;;;14.48;;
75787;SDS011;64406;50.024;14.492;2024-03-02T06:36:59;32.38;;;14.45;;
75787;SDS011;64406;50.024;14.492;2024-03-02T06:39:24;30.17;;;14.80;;
75787;SDS011;64406;50.024;14.492;2024-03-02T06:41:51;27.15;;;12.55;;
75787;SDS011;64406;50.024;14.492;2024-03-02T06:44:17;25.88;;;14.02;;
75787;SDS011;64406;50.024;14.492;2024-03-02T06:46:43;23.75;;;12.48;;
75787;SDS011;64406;50.024;14.492;2024-03-02T06:49:08;31.70;;;13.45;;
75787;SDS011;64406;50.024;14.492;2024-03-02T06:51:36;31.15;;;13.80;;
75787;SDS011;64406;50.024;14.492;2024-03-02T06:54:02;24.92;;;13.60;;
75787;SDS011;64406;50.024;14.492;2024-03-02T06:56:27;25.88;;;13.60;;
75787;SDS011;64406;50.024;14.492;2024-03-02T06:58:53;29.58;;;14.18;;
75787;SDS011;64406;50.024;14.492;2024-03-02T07:01:19;27.08;;;12.73;;
75787;SDS011;64406;50.024;14.492;2024-03-02T07:03:45;27.88;;;13.07;;
75787;SDS011;64406;50.024;14.492;2024-03-02T07:06:11;23.48;;;13.65;;
75787;SDS011;64406;50.024;14.492;2024-03-02T07:08:36;25.45;;;13.40;;
75787;SDS011;64406;50.024;14.492;2024-03-02T07:11:02;26.77;;;13.57;;
75787;SDS011;64406;50.024;14.492;2024-03-02T07:13:28;28.75;;;13.68;;
75787;SDS011;64406;50.024;14.492;2024-03-02T07:15:53;26.58;;;13.23;;
75787;SDS011;64406;50.024;14.492;2024-03-02T07:18:28;25.08;;;13.52;;
75787;SDS011;64406;50.024;14.492;2024-03-02T07:20:56;25.38;;;13.60;;
75787;SDS011;64406;50.024;14.492;2024-03-02T07:23:29;24.48;;;13.30;;
75787;SDS011;64406;50.024;14.492;2024-03-02T07:25:55;26.45;;;13.55;;
75787;SDS011;64406;50.024;14.492;2024-03-02T07:28:27;25.70;;;12.93;;
75787;SDS011;64406;50.024;14.492;2024-03-02T07:31:03;27.17;;;14.10;;
75787;SDS011;64406;50.024;14.492;2024-03-02T07:33:33;26.27;;;14.52;;
75787;SDS011;64406;50.024;14.492;2024-03-02T07:35:59;32.97;;;15.55;;
75787;SDS011;64406;50.024;14.492;2024-03-02T07:38:26;27.17;;;13.52;;
75787;SDS011;64406;50.024;14.492;2024-03-02T07:40:52;30.42;;;13.82;;
75787;SDS011;64406;50.024;14.492;2024-03-02T07:43:18;27.67;;;14.02;;
75787;SDS011;64406;50.024;14.492;2024-03-02T07:45:45;29.48;;;15.48;;
75787;SDS011;64406;50.024;14.492;2024-03-02T07:48:11;26.65;;;14.10;;
75787;SDS011;64406;50.024;14.492;2024-03-02T07:50:37;24.15;;;13.02;;
75787;SDS011;64406;50.024;14.492;2024-03-02T07:53:04;24.75;;;12.48;;
75787;SDS011;64406;50.024;14.492;2024-03-02T07:55:30;28.58;;;13.80;;
75787;SDS011;64406;50.024;14.492;2024-03-02T07:57:56;26.17;;;13.52;;
75787;SDS011;64406;50.024;14.492;2024-03-02T08:00:23;24.35;;;12.13;;
75787;SDS011;64406;50.024;14.492;2024-03-02T08:02:51;23.30;;;12.80;;
75787;SDS011;64406;50.024;14.492;2024-03-02T08:05:18;26.15;;;13.10;;
75787;SDS011;64406;50.024;14.492;2024-03-02T08:07:44;29.70;;;13.23;;
75787;SDS011;64406;50.024;14.492;2024-03-02T08:10:11;23.88;;;12.27;;
75787;SDS011;64406;50.024;14.492;2024-03-02T08:12:37;22.33;;;12.43;;
75787;SDS011;64406;50.024;14.492;2024-03-02T08:15:03;23.45;;;12.23;;
75787;SDS011;64406;50.024;14.492;2024-03-02T08:17:29;25.13;;;12.57;;
75787;SDS011;64406;50.024;14.492;2024-03-02T08:19:55;25.90;;;12.27;;
75787;SDS011;64406;50.024;14.492;2024-03-02T08:22:22;25.10;;;13.57;;
75787;SDS011;64406;50.024;14.492;2024-03-02T08:24:48;26.63;;;12.88;;
75787;SDS011;64406;50.024;14.492;2024-03-02T08:27:14;27.95;;;13.77;;
75787;SDS011;64406;50.024;14.492;2024-03-02T08:29:40;29.75;;;14.15;;
75787;SDS011;64406;50.024;14.492;2024-03-02T08:32:06;23.63;;;11.73;;
75787;SDS011;64406;50.024;14.492;2024-03-02T08:34:32;26.40;;;13.40;;
75787;SDS011;64406;50.024;14.492;2024-03-02T08:37:01;26.23;;;13.75;;
75787;SDS011;64406;50.024;14.492;2024-03-02T08:39:27;25.63;;;11.82;;
75787;SDS011;64406;50.024;14.492;2024-03-02T08:41:53;28.00;;;13.68;;
75787;SDS011;64406;50.024;14.492;2024-03-02T08:44:19;27.83;;;13.48;;
75787;SDS011;64406;50.024;14.492;2024-03-02T08:46:45;24.00;;;12.75;;
75787;SDS011;64406;50.024;14.492;2024-03-02T08:49:11;24.35;;;12.40;;
75787;SDS011;64406;50.024;14.492;2024-03-02T08:51:37;26.13;;;13.48;;
75787;SDS011;64406;50.024;14.492;2024-03-02T08:54:03;26.13;;;13.32;;
75787;SDS011;64406;50.024;14.492;2024-03-02T08:56:30;29.65;;;13.82;;
75787;SDS011;64406;50.024;14.492;2024-03-02T08:58:56;26.50;;;13.45;;
75787;SDS011;64406;50.024;14.492;2024-03-02T09:01:22;29.50;;;13.85;;
75787;SDS011;64406;50.024;14.492;2024-03-02T09:03:48;25.65;;;13.18;;
75787;SDS011;64406;50.024;14.492;2024-03-02T09:06:17;23.02;;;12.82;;
75787;SDS011;64406;50.024;14.492;2024-03-02T09:08:43;27.85;;;12.93;;
75787;SDS011;64406;50.024;14.492;2024-03-02T09:11:09;25.13;;;12.95;;
75787;SDS011;64406;50.024;14.492;2024-03-02T09:13:35;26.05;;;13.45;;
75787;SDS011;64406;50.024;14.492;2024-03-02T09:16:01;23.88;;;11.43;;
75787;SDS011;64406;50.024;14.492;2024-03-02T09:18:28;25.40;;;12.63;;
75787;SDS011;64406;50.024;14.492;2024-03-02T09:20:53;22.83;;;11.35;;
75787;SDS011;64406;50.024;14.492;2024-03-02T09:23:19;23.30;;;11.95;;
75787;SDS011;64406;50.024;14.492;2024-03-02T09:25:45;23.13;;;11.73;;
75787;SDS011;64406;50.024;14.492;2024-03-02T09:28:11;26.00;;;12.32;;
75787;SDS011;64406;50.024;14.492;2024-03-02T09:30:36;25.77;;;12.23;;
75787;SDS011;64406;50.024;14.492;2024-03-02T09:33:02;29.15;;;12.57;;
75787;SDS011;64406;50.024;14.492;2024-03-02T09:35:28;22.35;;;11.45;;
75787;SDS011;64406;50.024;14.492;2024-03-02T09:37:55;23.63;;;11.98;;
75787;SDS011;64406;50.024;14.492;2024-03-02T09:40:21;23.88;;;11.32;;
75787;SDS011;64406;50.024;14.492;2024-03-02T09:42:47;19.08;;;10.77;;
75787;SDS011;64406;50.024;14.492;2024-03-02T09:45:22;19.45;;;9.73;;
75787;SDS011;64406;50.024;14.492;2024-03-02T09:47:50;22.40;;;10.90;;
75787;SDS011;64406;50.024;14.492;2024-03-02T09:50:15;19.20;;;10.52;;
75787;SDS011;64406;50.024;14.492;2024-03-02T09:52:42;23.48;;;11.18;;
75787;SDS011;64406;50.024;14.492;2024-03-02T09:55:08;26.92;;;12.20;;
75787;SDS011;64406;50.024;14.492;2024-03-02T09:57:34;15.80;;;9.07;;
75787;SDS011;64406;50.024;14.492;2024-03-02T10:00:00;20.08;;;11.63;;
75787;SDS011;64406;50.024;14.492;2024-03-02T10:02:26;21.88;;;10.52;;
75787;SDS011;64406;50.024;14.492;2024-03-02T10:04:51;20.38;;;11.23;;
75787;SDS011;64406;50.024;14.492;2024-03-02T10:07:18;21.75;;;11.45;;
75787;SDS011;64406;50.024;14.492;2024-03-02T10:09:48;20.70;;;11.50;;
75787;SDS011;64406;50.024;14.492;2024-03-02T10:12:16;16.80;;;10.20;;
75787;SDS011;64406;50.024;14.492;2024-03-02T10:14:42;19.73;;;11.48;;
75787;SDS011;64406;50.024;14.492;2024-03-02T10:17:09;20.75;;;11.05;;
75787;SDS011;64406;50.024;14.492;2024-03-02T10:19:36;19.08;;;10.55;;
75787;SDS011;64406;50.024;14.492;2024-03-02T10:22:03;19.50;;;10.55;;
75787;SDS011;64406;50.024;14.492;2024-03-02T10:24:38;20.98;;;10.05;;
75787;SDS011;64406;50.024;14.492;2024-03-02T10:27:09;19.98;;;10.85;;
75787;SDS011;64406;50.024;14.492;2024-03-02T10:29:36;20.42;;;9.93;;
75787;SDS011;64406;50.024;14.492;2024-03-02T10:32:04;17.55;;;10.20;;
75787;SDS011;64406;50.024;14.492;2024-03-02T10:34:31;17.95;;;9.90;;
75787;SDS011;64406;50.024;14.492;2024-03-02T10:36:59;18.25;;;10.65;;
75787;SDS011;64406;50.024;14.492;2024-03-02T10:39:24;18.55;;;10.20;;
75787;SDS011;64406;50.024;14.492;2024-03-02T10:41:51;20.80;;;9.63;;
75787;SDS011;64406;50.024;14.492;2024-03-02T10:44:18;19.67;;;10.57;;
75787;SDS011;64406;50.024;14.492;2024-03-02T10:46:44;15.98;;;8.98;;
75787;SDS011;64406;50.024;14.492;2024-03-02T10:49:12;13.65;;;8.63;;
75787;SDS011;64406;50.024;14.492;2024-03-02T10:51:38;16.00;;;9.25;;
75787;SDS011;64406;50.024;14.492;2024-03-02T10:54:04;17.75;;;9.30;;
75787;SDS011;64406;50.024;14.492;2024-03-02T10:56:30;15.40;;;8.43;;
75787;SDS011;64406;50.024;14.492;2024-03-02T10:59:06;16.45;;;8.85;;
75787;SDS011;64406;50.024;14.492;2024-03-02T11:01:57;15.85;;;8.90;;
75787;SDS011;64406;50.024;14.492;2024-03-02T11:04:25;18.08;;;9.25;;
75787;SDS011;64406;50.024;14.492;2024-03-02T11:06:52;15.52;;;8.55;;
75787;SDS011;64406;50.024;14.492;2024-03-02T11:09:31;18.95;;;9.15;;
75787;SDS011;64406;50.024;14.492;2024-03-02T11:14:24;14.63;;;9.15;;
75787;SDS011;64406;50.024;14.492;2024-03-02T11:16:51;18.00;;;10.23;;
75787;SDS011;64406;50.024;14.492;2024-03-02T11:19:17;13.80;;;8.93;;
75787;SDS011;64406;50.024;14.492;2024-03-02T11:21:44;17.27;;;8.50;;
75787;SDS011;64406;50.024;14.492;2024-03-02T11:27:04;18.20;;;9.30;;
75787;SDS011;64406;50.024;14.492;2024-03-02T11:32:05;18.42;;;9.32;;
75787;SDS011;64406;50.024;14.492;2024-03-02T11:34:38;14.48;;;8.02;;
75787;SDS011;64406;50.024;14.492;2024-03-02T11:37:10;15.55;;;8.93;;
75787;SDS011;64406;50.024;14.492;2024-03-02T11:39:37;14.18;;;8.23;;
75787;SDS011;64406;50.024;14.492;2024-03-02T11:42:07;15.55;;;8.27;;
75787;SDS011;64406;50.024;14.492;2024-03-02T11:44:35;14.30;;;8.48;;
75787;SDS011;64406;50.024;14.492;2024-03-02T11:47:02;13.90;;;8.88;;
75787;SDS011;64406;50.024;14.492;2024-03-02T11:52:09;18.77;;;9.73;;
75787;SDS011;64406;50.024;14.492;2024-03-02T11:54:36;16.40;;;9.02;;
75787;SDS011;64406;50.024;14.492;2024-03-02T11:57:07;17.10;;;9.82;;
75787;SDS011;64406;50.024;14.492;2024-03-02T11:59:33;15.35;;;8.93;;
75787;SDS011;64406;50.024;14.492;2024-03-02T12:01:59;16.20;;;9.52;;
75787;SDS011;64406;50.024;14.492;2024-03-02T12:04:25;16.33;;;9.82;;
75787;SDS011;64406;50.024;14.492;2024-03-02T12:06:55;17.15;;;9.45;;
75787;SDS011;64406;50.024;14.492;2024-03-02T12:09:21;17.60;;;9.57;;
75787;SDS011;64406;50.024;14.492;2024-03-02T12:11:47;15.68;;;9.95;;
75787;SDS011;64406;50.024;14.492;2024-03-02T12:14:13;18.80;;;9.63;;
75787;SDS011;64406;50.024;14.492;2024-03-02T12:16:39;17.00;;;9.65;;
75787;SDS011;64406;50.024;14.492;2024-03-02T12:19:09;16.70;;;8.40;;
75787;SDS011;64406;50.024;14.492;2024-03-02T12:21:34;16.67;;;8.38;;
75787;SDS011;64406;50.024;14.492;2024-03-02T12:24:01;13.82;;;8.80;;
75787;SDS011;64406;50.024;14.492;2024-03-02T12:26:28;15.55;;;8.18;;
75787;SDS011;64406;50.024;14.492;2024-03-02T12:28:54;16.10;;;8.55;;
75787;SDS011;64406;50.024;14.492;2024-03-02T12:31:20;16.88;;;9.70;;
75787;SDS011;64406;50.024;14.492;2024-03-02T12:33:46;17.35;;;8.95;;
75787;SDS011;64406;50.024;14.492;2024-03-02T12:36:13;15.90;;;8.90;;
75787;SDS011;64406;50.024;14.492;2024-03-02T12:38:43;15.38;;;9.18;;
75787;SDS011;64406;50.024;14.492;2024-03-02T12:41:09;15.52;;;9.20;;
75787;SDS011;64406;50.024;14.492;2024-03-02T12:43:35;16.38;;;9.27;;
75787;SDS011;64406;50.024;14.492;2024-03-02T12:46:00;17.48;;;9.77;;
75787;SDS011;64406;50.024;14.492;2024-03-02T12:48:26;16.17;;;9.30;;
75787;SDS011;64406;50.024;14.492;2024-03-02T12:50:52;13.75;;;8.60;;
75787;SDS011;64406;50.024;14.492;2024-03-02T12:53:18;14.80;;;9.77;;
75787;SDS011;64406;50.024;14.492;2024-03-02T12:55:44;19.48;;;10.43;;
75787;SDS011;64406;50.024;14.492;2024-03-02T12:58:19;14.27;;;9.02;;
75787;SDS011;64406;50.024;14.492;2024-03-02T13:00:48;17.52;;;10.57;;
75787;SDS011;64406;50.024;14.492;2024-03-02T13:03:14;16.85;;;10.48;;
75787;SDS011;64406;50.024;14.492;2024-03-02T13:05:47;17.85;;;10.90;;
75787;SDS011;64406;50.024;14.492;2024-03-02T13:08:14;17.60;;;10.43;;
75787;SDS011;64406;50.024;14.492;2024-03-02T13:10:40;18.33;;;10.73;;
75787;SDS011;64406;50.024;14.492;2024-03-02T13:13:06;19.08;;;10.90;;
75787;SDS011;64406;50.024;14.492;2024-03-02T13:15:32;18.50;;;10.48;;
75787;SDS011;64406;50.024;14.492;2024-03-02T13:17:58;20.40;;;10.88;;
75787;SDS011;64406;50.024;14.492;2024-03-02T13:20:29;16.25;;;10.38;;
75787;SDS011;64406;50.024;14.492;2024-03-02T13:22:57;17.75;;;9.70;;
75787;SDS011;64406;50.024;14.492;2024-03-02T13:25:22;16.50;;;9.95;;
75787;SDS011;64406;50.024;14.492;2024-03-02T13:27:48;18.58;;;9.48;;
75787;SDS011;64406;50.024;14.492;2024-03-02T13:30:14;17.67;;;10.18;;
75787;SDS011;64406;50.024;14.492;2024-03-02T13:32:39;16.67;;;9.70;;
75787;SDS011;64406;50.024;14.492;2024-03-02T13:35:05;17.08;;;10.05;;
75787;SDS011;64406;50.024;14.492;2024-03-02T13:37:30;18.40;;;10.35;;
75787;SDS011;64406;50.024;14.492;2024-03-02T13:39:56;18.20;;;10.85;;
75787;SDS011;64406;50.024;14.492;2024-03-02T13:42:21;16.88;;;10.23;;
75787;SDS011;64406;50.024;14.492;2024-03-02T13:44:47;21.38;;;10.40;;
75787;SDS011;64406;50.024;14.492;2024-03-02T13:47:14;18.55;;;9.60;;
75787;SDS011;64406;50.024;14.492;2024-03-02T13:49:40;17.90;;;10.50;;
75787;SDS011;64406;50.024;14.492;2024-03-02T13:52:10;20.77;;;11.60;;
75787;SDS011;64406;50.024;14.492;2024-03-02T13:54:39;16.60;;;10.40;;
75787;SDS011;64406;50.024;14.492;2024-03-02T13:57:11;20.33;;;10.40;;
75787;SDS011;64406;50.024;14.492;2024-03-02T13:59:37;15.20;;;9.40;;
75787;SDS011;64406;50.024;14.492;2024-03-02T14:02:04;16.98;;;9.98;;
75787;SDS011;64406;50.024;14.492;2024-03-02T14:04:33;18.17;;;10.43;;
75787;SDS011;64406;50.024;14.492;2024-03-02T14:07:00;17.45;;;10.05;;
75787;SDS011;64406;50.024;14.492;2024-03-02T14:09:26;18.02;;;9.50;;
75787;SDS011;64406;50.024;14.492;2024-03-02T14:11:52;15.60;;;10.07;;
75787;SDS011;64406;50.024;14.492;2024-03-02T14:14:19;16.23;;;9.70;;
75787;SDS011;64406;50.024;14.492;2024-03-02T14:16:45;17.05;;;9.90;;
75787;SDS011;64406;50.024;14.492;2024-03-02T14:19:11;15.90;;;9.38;;
75787;SDS011;64406;50.024;14.492;2024-03-02T14:21:40;20.90;;;11.45;;